Time;durP1;ratioP1;P1;durP2;ratioP2;P2;SDS_P1;SDS_P2;PMS_P1;PMS_P2;Temp;Humidity;BMP_temperature;BMP_pressure;BME280_temperature;BME280_humidity;BME280_pressure;Samples;Min_cycle;Max_cycle;Signal;HPM_P1;HPM_P2
2021/04/15 00:02:16;;;;;;;43.08;8.15;;;4.10;99.90;;;;;;5070802;28;20039;-48
2021/04/15 00:05:27;;;;;;;19.33;9.23;;;4.00;99.90;;;;;;5055905;28;20039;-50
2021/04/15 00:08:31;;;;;;;5.05;3.15;;;4.00;99.90;;;;;;5071440;28;20040;-51
2021/04/15 00:11:37;;;;;;;5.65;3.80;;;4.00;99.90;;;;;;5071852;28;20053;-48
2021/04/15 00:14:51;;;;;;;5.30;3.75;;;3.90;99.90;;;;;;5071871;28;20041;-47
2021/04/15 00:17:55;;;;;;;8.82;4.50;;;3.90;99.90;;;;;;5071933;28;20052;-48
2021/04/15 00:21:00;;;;;;;22.33;11.90;;;3.80;99.90;;;;;;5071766;28;20376;-48
2021/04/15 00:24:05;;;;;;;15.25;8.38;;;3.80;99.90;;;;;;5066941;28;20043;-47
2021/04/15 00:27:09;;;;;;;7.53;5.10;;;3.90;99.90;;;;;;5071097;28;20094;-50
2021/04/15 00:30:14;;;;;;;10.63;7.50;;;3.90;99.90;;;;;;5071090;28;20483;-48
2021/04/15 00:33:19;;;;;;;10.90;7.03;;;3.90;99.90;;;;;;5072006;28;20509;-50
2021/04/15 00:36:26;;;;;;;10.90;6.85;;;3.80;99.90;;;;;;5070692;28;20047;-48
2021/04/15 00:39:40;;;;;;;11.38;7.60;;;3.90;99.90;;;;;;5071655;28;20051;-48
2021/04/15 00:42:44;;;;;;;12.23;9.07;;;3.80;99.90;;;;;;5071370;28;20052;-47
2021/04/15 00:45:48;;;;;;;13.27;9.20;;;3.80;99.90;;;;;;5070701;28;20052;-48
2021/04/15 00:48:53;;;;;;;7.15;4.53;;;3.80;99.90;;;;;;5071600;28;20329;-51
2021/04/15 00:52:02;;;;;;;9.85;3.70;;;3.70;99.90;;;;;;5070712;28;20036;-53
2021/04/15 00:55:11;;;;;;;7.72;5.13;;;3.70;99.90;;;;;;5071178;28;20041;-48
2021/04/15 00:58:16;;;;;;;13.85;7.35;;;3.70;99.90;;;;;;5071360;28;20495;-49
2021/04/15 01:01:20;;;;;;;22.58;9.38;;;3.70;99.90;;;;;;5071498;28;20402;-48
2021/04/15 01:04:26;;;;;;;69.43;24.15;;;3.70;99.90;;;;;;5071092;28;20044;-52
2021/04/15 01:07:30;;;;;;;134.77;52.53;;;3.70;99.90;;;;;;5070674;28;20048;-48
2021/04/15 01:10:38;;;;;;;53.65;23.63;;;3.70;99.90;;;;;;5070967;28;20051;-49
2021/04/15 01:14:20;;;;;;;7.55;4.35;;;3.80;99.90;;;;;;5071274;28;20040;-49
2021/04/15 01:17:49;;;;;;;7.95;4.40;;;3.90;99.90;;;;;;5070039;28;20040;-48
2021/04/15 01:20:59;;;;;;;14.40;7.45;;;3.90;99.90;;;;;;5070398;28;20032;-50
2021/04/15 01:24:26;;;;;;;11.65;4.90;;;3.80;99.90;;;;;;5070745;28;20052;-51
2021/04/15 01:27:42;;;;;;;8.73;3.35;;;3.80;99.90;;;;;;5069701;28;20051;-49
2021/04/15 01:30:54;;;;;;;7.30;3.50;;;3.80;99.90;;;;;;5062069;28;20037;-49
2021/04/15 01:34:24;;;;;;;7.13;3.17;;;4.00;99.90;;;;;;5070058;28;20045;-47
2021/04/15 01:37:55;;;;;;;8.55;4.95;;;3.90;99.90;;;;;;5057911;28;20044;-51
2021/04/15 01:41:24;;;;;;;6.93;3.58;;;3.80;99.90;;;;;;5070224;28;20041;-48
2021/04/15 01:44:36;;;;;;;6.15;3.47;;;3.80;99.90;;;;;;5070474;28;20621;-49
2021/04/15 01:47:57;;;;;;;5.10;3.67;;;3.70;99.90;;;;;;5069848;28;20040;-50
2021/04/15 01:51:11;;;;;;;5.38;3.60;;;3.60;99.90;;;;;;5069815;28;20037;-52
2021/04/15 01:54:56;;;;;;;8.98;4.13;;;3.50;99.90;;;;;;5069787;28;20408;-48
2021/04/15 01:58:10;;;;;;;9.05;5.43;;;3.40;99.90;;;;;;5069145;28;20495;-49
2021/04/15 02:01:18;;;;;;;9.20;5.25;;;3.40;99.90;;;;;;5069720;28;20384;-50
2021/04/15 02:04:27;;;;;;;11.07;6.25;;;3.40;99.90;;;;;;5069927;28;20033;-49
2021/04/15 02:07:35;;;;;;;12.38;6.70;;;3.30;99.90;;;;;;5069124;28;20040;-48
2021/04/15 02:10:47;;;;;;;7.78;3.75;;;3.20;99.90;;;;;;5069815;28;20048;-48
2021/04/15 02:13:54;;;;;;;6.15;4.60;;;3.30;99.90;;;;;;5069607;28;20032;-48
2021/04/15 02:17:01;;;;;;;5.65;4.22;;;3.30;99.90;;;;;;5068977;28;20037;-50
2021/04/15 02:20:13;;;;;;;11.75;6.40;;;3.40;99.90;;;;;;5069323;28;20040;-51
2021/04/15 02:23:22;;;;;;;7.15;3.80;;;3.40;99.90;;;;;;5068636;28;20047;-49
2021/04/15 02:26:35;;;;;;;9.63;5.55;;;3.50;99.90;;;;;;5067917;28;20037;-48
2021/04/15 02:29:45;;;;;;;10.70;6.10;;;3.50;99.90;;;;;;5063192;28;20037;-48
2021/04/15 02:33:22;;;;;;;6.85;4.18;;;3.60;99.90;;;;;;5063412;28;20057;-48
2021/04/15 02:36:34;;;;;;;5.55;4.13;;;3.60;99.90;;;;;;5069333;28;20040;-51
2021/04/15 02:39:43;;;;;;;10.25;5.50;;;3.60;99.90;;;;;;5069874;28;20395;-50
2021/04/15 02:42:47;;;;;;;6.30;4.25;;;3.70;99.90;;;;;;5069771;28;20138;-50
2021/04/15 02:45:55;;;;;;;6.05;4.22;;;3.70;99.90;;;;;;5068971;28;20387;-57
2021/04/15 02:49:03;;;;;;;6.85;4.22;;;3.70;99.90;;;;;;5068712;28;20405;-48
2021/04/15 02:52:18;;;;;;;9.38;4.55;;;3.70;99.90;;;;;;5069032;28;20404;-51
2021/04/15 02:55:26;;;;;;;7.82;4.80;;;3.70;99.90;;;;;;5069132;28;20495;-52
2021/04/15 02:58:40;;;;;;;7.32;4.75;;;3.60;99.90;;;;;;5068916;28;20313;-48
2021/04/15 03:01:50;;;;;;;7.43;4.47;;;3.60;99.90;;;;;;5069241;28;20507;-48
2021/04/15 03:05:15;;;;;;;5.13;4.05;;;3.50;99.90;;;;;;5069077;28;20036;-53
2021/04/15 03:08:23;;;;;;;8.20;4.85;;;3.50;99.90;;;;;;5068681;28;20041;-47
2021/04/15 03:11:37;;;;;;;5.47;4.07;;;3.50;99.90;;;;;;5068709;28;20048;-48
2021/04/15 03:14:57;;;;;;;8.65;4.07;;;3.50;99.90;;;;;;5072136;28;20041;-48
2021/04/15 03:18:06;;;;;;;11.93;7.85;;;3.40;99.90;;;;;;5072729;28;20048;-49
2021/04/15 03:21:22;;;;;;;7.20;5.25;;;3.40;99.90;;;;;;5072876;28;20600;-52
2021/04/15 03:24:34;;;;;;;8.38;3.80;;;3.40;99.90;;;;;;5073202;28;20028;-48
2021/04/15 03:28:06;;;;;;;10.02;4.15;;;3.50;99.90;;;;;;5072095;28;20461;-52
2021/04/15 03:31:20;;;;;;;6.43;4.35;;;3.50;99.90;;;;;;5057974;28;20040;-48
2021/04/15 03:34:51;;;;;;;7.07;4.47;;;3.40;99.90;;;;;;5053438;28;20636;-53
2021/04/15 03:38:10;;;;;;;6.70;4.40;;;3.40;99.90;;;;;;5052140;28;20460;-48
2021/04/15 03:41:24;;;;;;;9.52;5.03;;;3.30;99.90;;;;;;5052816;28;20044;-50
2021/04/15 03:44:42;;;;;;;7.95;4.50;;;3.20;99.90;;;;;;5053242;28;20040;-48
2021/04/15 03:47:57;;;;;;;5.75;4.38;;;3.20;99.90;;;;;;5052574;28;20037;-50
2021/04/15 03:51:03;;;;;;;11.82;5.20;;;3.20;99.90;;;;;;5052380;28;20499;-53
2021/04/15 03:54:18;;;;;;;7.13;4.35;;;3.10;99.90;;;;;;5052781;28;20056;-48
2021/04/15 03:57:24;;;;;;;7.60;4.15;;;3.20;99.90;;;;;;5052095;28;20040;-48
2021/04/15 04:00:34;;;;;;;8.20;4.18;;;3.20;99.90;;;;;;5052495;28;20392;-47
2021/04/15 04:03:41;;;;;;;7.43;4.38;;;3.20;99.90;;;;;;5052395;28;20052;-48
2021/04/15 04:06:48;;;;;;;6.35;3.90;;;3.10;99.90;;;;;;5051734;28;20041;-50
2021/04/15 04:10:01;;;;;;;7.30;4.53;;;3.10;99.90;;;;;;5051754;28;20072;-48
2021/04/15 04:13:35;;;;;;;9.13;4.88;;;3.10;99.90;;;;;;5051695;28;20029;-48
2021/04/15 04:16:47;;;;;;;7.00;4.80;;;3.10;99.90;;;;;;5052026;28;20041;-49
2021/04/15 04:19:55;;;;;;;9.20;5.00;;;3.00;99.90;;;;;;5051808;28;20037;-48
2021/04/15 04:23:24;;;;;;;7.97;4.97;;;2.80;99.90;;;;;;5067001;28;20052;-51
2021/04/15 04:26:31;;;;;;;7.68;5.05;;;2.80;99.90;;;;;;5067801;28;20041;-48
2021/04/15 04:29:58;;;;;;;9.38;5.63;;;2.80;99.90;;;;;;5068823;28;20028;-49
2021/04/15 04:33:05;;;;;;;7.50;4.80;;;2.70;99.90;;;;;;5068155;28;20494;-48
2021/04/15 04:36:12;;;;;;;8.90;4.45;;;2.60;99.90;;;;;;5063258;28;20040;-50
2021/04/15 04:39:18;;;;;;;10.45;5.13;;;2.60;99.90;;;;;;5064861;28;20041;-48
2021/04/15 04:42:37;;;;;;;8.52;4.70;;;2.70;99.90;;;;;;5064669;28;20055;-49
2021/04/15 04:45:41;;;;;;;9.00;4.72;;;2.80;99.90;;;;;;5066621;28;20024;-49
2021/04/15 04:48:54;;;;;;;11.00;4.88;;;2.80;99.90;;;;;;5064185;28;20035;-53
2021/04/15 04:52:03;;;;;;;5.18;3.70;;;2.90;99.90;;;;;;5065515;28;20051;-51
2021/04/15 04:55:29;;;;;;;7.45;4.57;;;3.00;99.90;;;;;;5073113;28;20036;-49
2021/04/15 04:58:35;;;;;;;4.97;3.40;;;3.20;99.90;;;;;;5070671;28;20052;-53
2021/04/15 05:01:41;;;;;;;7.35;3.72;;;3.40;99.90;;;;;;5057669;28;20057;-49
2021/04/15 05:04:45;;;;;;;4.55;3.47;;;3.60;99.90;;;;;;5069753;28;20502;-49
2021/04/15 05:08:14;;;;;;;4.70;3.33;;;3.80;99.90;;;;;;5075152;28;20045;-53
2021/04/15 05:11:18;;;;;;;6.22;2.92;;;4.10;99.90;;;;;;5070890;28;20044;-50
2021/04/15 05:14:26;;;;;;;5.63;4.03;;;4.20;99.90;;;;;;5061709;28;20037;-55
2021/04/15 05:17:36;;;;;;;6.15;4.05;;;4.30;99.90;;;;;;5050196;28;20032;-51
2021/04/15 05:20:40;;;;;;;4.90;2.90;;;4.50;99.90;;;;;;5060897;28;20041;-49
2021/04/15 05:23:51;;;;;;;3.45;2.92;;;4.60;99.90;;;;;;5050360;28;20389;-53
2021/04/15 05:26:58;;;;;;;3.55;2.60;;;4.70;99.90;;;;;;5067548;28;20041;-51
2021/04/15 05:30:27;;;;;;;4.18;2.60;;;4.80;99.90;;;;;;5069352;28;20392;-50
2021/04/15 05:33:32;;;;;;;4.22;2.50;;;4.90;99.90;;;;;;5062770;28;20061;-53
2021/04/15 05:36:39;;;;;;;4.22;2.35;;;5.00;99.90;;;;;;5049255;28;20384;-50
2021/04/15 05:39:44;;;;;;;4.20;2.58;;;5.10;99.90;;;;;;5049918;28;20040;-48
2021/04/15 05:42:58;;;;;;;4.07;1.88;;;5.20;99.90;;;;;;5049144;28;20049;-50
2021/04/15 05:46:28;;;;;;;4.57;2.20;;;5.30;99.90;;;;;;5049954;28;20515;-49
2021/04/15 05:49:41;;;;;;;4.47;2.05;;;5.40;99.90;;;;;;5059192;28;20384;-50
2021/04/15 05:52:52;;;;;;;4.25;1.88;;;5.50;99.90;;;;;;5061445;28;20036;-54
2021/04/15 05:56:19;;;;;;;4.23;2.43;;;5.60;99.90;;;;;;5048447;28;20040;-54
2021/04/15 05:59:44;;;;;;;4.53;2.60;;;5.70;99.90;;;;;;5065450;28;20262;-51
2021/04/15 06:03:13;;;;;;;5.22;3.00;;;5.80;99.90;;;;;;5061525;28;20045;-53
2021/04/15 06:06:21;;;;;;;5.18;2.55;;;5.80;99.90;;;;;;5068132;28;20387;-48
2021/04/15 06:09:25;;;;;;;3.47;2.40;;;6.10;99.90;;;;;;5071271;28;20041;-52
2021/04/15 06:12:39;;;;;;;5.20;2.25;;;6.30;99.90;;;;;;5076566;28;20040;-51
2021/04/15 06:16:01;;;;;;;3.70;2.10;;;6.40;99.90;;;;;;5064667;28;20521;-53
2021/04/15 06:19:13;;;;;;;3.47;2.00;;;6.60;99.90;;;;;;5057546;28;20056;-52
2021/04/15 06:22:20;;;;;;;3.03;2.17;;;6.70;99.90;;;;;;5049310;28;20506;-51
2021/04/15 06:25:42;;;;;;;3.20;2.38;;;6.80;99.90;;;;;;5056441;28;20028;-49
2021/04/15 06:28:49;;;;;;;4.05;2.58;;;7.00;99.90;;;;;;5063404;28;20032;-50
2021/04/15 06:31:57;;;;;;;4.80;2.42;;;7.00;99.90;;;;;;5056672;28;20040;-53
2021/04/15 06:35:02;;;;;;;5.20;2.45;;;6.90;99.90;;;;;;5057361;28;20033;-49
2021/04/15 06:38:21;;;;;;;3.40;2.28;;;7.30;99.90;;;;;;5058950;28;20037;-50
2021/04/15 06:41:48;;;;;;;9.75;4.00;;;7.50;99.90;;;;;;5060388;28;20032;-49
2021/04/15 06:45:21;;;;;;;4.00;2.03;;;7.30;99.90;;;;;;5054702;28;20025;-48
2021/04/15 06:49:24;;;;;;;3.65;2.00;;;7.60;99.90;;;;;;5058496;28;20467;-47
2021/04/15 06:52:54;;;;;;;8.32;2.22;;;6.70;99.90;;;;;;4988880;28;20041;-49
2021/04/15 06:56:17;;;;;;;6.78;2.58;;;6.60;99.90;;;;;;5052370;28;20041;-52
2021/04/15 06:59:42;;;;;;;5.68;2.25;;;7.10;99.90;;;;;;5059673;28;20041;-52
2021/04/15 07:03:05;;;;;;;4.55;2.38;;;6.80;99.90;;;;;;5050120;28;20573;-48
2021/04/15 07:06:32;;;;;;;5.25;3.03;;;7.20;99.90;;;;;;5059582;28;20044;-48
2021/04/15 07:09:51;;;;;;;4.22;2.60;;;7.60;99.90;;;;;;5053188;28;20037;-51
2021/04/15 07:13:24;;;;;;;3.50;2.65;;;8.40;99.90;;;;;;5054808;28;20037;-50
2021/04/15 07:16:53;;;;;;;3.47;2.30;;;9.30;99.90;;;;;;5054430;28;20036;-48
2021/04/15 07:20:09;;;;;;;3.95;1.98;;;9.70;99.90;;;;;;5055323;28;20041;-52
2021/04/15 07:23:24;;;;;;;2.67;1.80;;;10.30;99.90;;;;;;5054636;28;20045;-51
2021/04/15 07:26:48;;;;;;;2.33;1.77;;;11.20;99.60;;;;;;5052731;28;20048;-51
2021/04/15 07:30:24;;;;;;;4.63;1.83;;;11.60;98.90;;;;;;5057330;28;20051;-52
2021/04/15 07:33:42;;;;;;;3.00;2.00;;;11.90;98.50;;;;;;5051961;28;20052;-49
2021/04/15 07:36:59;;;;;;;2.50;1.60;;;12.90;98.50;;;;;;5055347;28;20064;-57
2021/04/15 07:40:31;;;;;;;1.92;1.52;;;14.10;95.70;;;;;;5052211;28;20039;-49
2021/04/15 07:44:02;;;;;;;2.60;1.80;;;15.10;93.80;;;;;;5058947;28;20055;-50
2021/04/15 07:47:34;;;;;;;2.13;1.50;;;15.70;92.70;;;;;;5066893;28;20040;-48
2021/04/15 07:51:11;;;;;;;3.90;1.90;;;15.70;91.10;;;;;;5067218;28;20047;-52
2021/04/15 07:54:49;;;;;;;7.13;4.93;;;14.80;89.80;;;;;;5064285;28;20517;-48
2021/04/15 07:57:59;;;;;;;6.30;3.83;;;13.10;90.70;;;;;;5054660;28;20048;-50
2021/04/15 08:01:15;;;;;;;5.30;2.70;;;12.50;92.60;;;;;;5060447;28;20655;-50
2021/04/15 08:04:41;;;;;;;4.15;2.67;;;12.40;92.60;;;;;;5057784;28;20040;-51
2021/04/15 08:07:48;;;;;;;3.72;2.42;;;12.90;93.60;;;;;;5057017;28;20027;-51
2021/04/15 08:11:26;;;;;;;4.32;2.60;;;13.20;92.50;;;;;;5061222;28;20036;-50
2021/04/15 08:14:49;;;;;;;2.78;1.88;;;13.60;94.00;;;;;;5059282;28;20368;-53
2021/04/15 08:18:12;;;;;;;3.35;2.20;;;13.80;92.20;;;;;;5061324;28;20161;-49
2021/04/15 08:21:51;;;;;;;3.05;2.42;;;13.60;91.60;;;;;;5065284;28;20422;-52
2021/04/15 08:25:14;;;;;;;5.45;2.67;;;13.40;92.20;;;;;;5056611;28;20055;-50
2021/04/15 08:28:27;;;;;;;5.20;2.35;;;13.30;92.60;;;;;;5060740;28;20044;-49
2021/04/15 08:31:46;;;;;;;2.50;2.00;;;12.90;93.00;;;;;;5061399;28;20111;-49
2021/04/15 08:35:14;;;;;;;3.88;2.85;;;12.70;93.40;;;;;;5058926;28;20044;-52
2021/04/15 08:38:47;;;;;;;2.72;1.88;;;12.50;93.80;;;;;;5054490;28;20048;-48
2021/04/15 08:42:04;;;;;;;5.32;2.50;;;12.30;93.80;;;;;;5059353;28;20055;-49
2021/04/15 08:45:48;;;;;;;3.58;1.73;;;12.00;94.00;;;;;;5061965;28;20055;-53
2021/04/15 08:48:55;;;;;;;3.42;1.85;;;11.80;95.40;;;;;;5059303;28;20510;-48
2021/04/15 08:52:16;;;;;;;4.82;2.00;;;11.60;95.20;;;;;;5061996;28;20051;-51
2021/04/15 08:55:36;;;;;;;3.97;2.25;;;11.40;95.50;;;;;;5065753;28;20048;-52
2021/04/15 08:59:05;;;;;;;4.15;2.33;;;11.20;96.20;;;;;;5057371;28;20043;-53
2021/04/15 09:02:27;;;;;;;3.03;2.33;;;11.00;96.70;;;;;;5054416;28;20404;-48
2021/04/15 09:05:47;;;;;;;3.97;2.10;;;10.90;97.10;;;;;;5055019;28;20044;-51
2021/04/15 09:09:11;;;;;;;4.80;3.03;;;10.90;96.60;;;;;;5054359;28;20415;-50
2021/04/15 09:12:28;;;;;;;4.55;3.53;;;10.80;97.10;;;;;;5050667;28;20048;-48
2021/04/15 09:15:39;;;;;;;3.97;2.80;;;10.90;97.60;;;;;;5060428;28;20323;-50
2021/04/15 09:18:49;;;;;;;6.07;2.78;;;11.00;97.70;;;;;;5065203;28;20043;-49
2021/04/15 09:22:32;;;;;;;4.30;2.90;;;11.00;98.70;;;;;;5057469;28;20055;-48
2021/04/15 09:25:47;;;;;;;4.85;2.22;;;11.40;98.20;;;;;;5070320;28;20103;-49
2021/04/15 09:29:18;;;;;;;5.40;2.10;;;11.80;96.50;;;;;;5070542;28;20032;-49
2021/04/15 09:32:56;;;;;;;3.25;2.13;;;12.10;96.00;;;;;;5070134;28;20039;-52
2021/04/15 09:36:34;;;;;;;3.55;2.67;;;12.00;95.90;;;;;;5070318;28;20404;-48
2021/04/15 09:40:19;;;;;;;4.53;2.33;;;12.00;96.00;;;;;;5070570;28;20051;-53
2021/04/15 09:43:38;;;;;;;5.35;2.28;;;12.10;96.10;;;;;;5064029;28;20234;-51
2021/04/15 09:47:04;;;;;;;3.00;1.90;;;12.40;97.50;;;;;;5068651;28;20414;-49
2021/04/15 09:50:19;;;;;;;3.65;2.17;;;12.70;97.20;;;;;;5069961;28;20043;-48
2021/04/15 09:53:49;;;;;;;2.35;1.58;;;13.00;96.30;;;;;;5069012;28;20419;-54
2021/04/15 09:57:17;;;;;;;2.35;1.75;;;13.20;95.60;;;;;;5050757;28;20051;-53
2021/04/15 10:00:38;;;;;;;3.22;2.03;;;13.40;95.50;;;;;;5055209;28;20044;-48
2021/04/15 10:03:55;;;;;;;8.55;2.00;;;13.50;95.10;;;;;;5069433;28;20047;-52
2021/04/15 10:07:09;;;;;;;4.15;2.20;;;13.70;94.80;;;;;;5052898;28;20048;-53
2021/04/15 10:10:42;;;;;;;5.32;1.75;;;13.80;94.80;;;;;;5048688;28;20064;-49
2021/04/15 10:14:14;;;;;;;4.43;1.95;;;13.80;94.10;;;;;;5049832;28;20044;-48
2021/04/15 10:17:31;;;;;;;5.18;2.13;;;14.00;93.80;;;;;;5058623;28;20452;-48
2021/04/15 10:21:33;;;;;;;3.25;2.10;;;13.90;94.80;;;;;;5049512;28;20521;-53
2021/04/15 10:24:37;;;;;;;3.53;1.98;;;14.00;94.10;;;;;;5026312;28;20052;-52
2021/04/15 10:27:50;;;;;;;5.82;2.00;;;14.40;94.10;;;;;;5026122;28;20416;-51
2021/04/15 10:31:19;;;;;;;6.72;2.30;;;15.00;93.80;;;;;;5048937;28;20115;-51
2021/04/15 10:34:51;;;;;;;4.53;2.25;;;15.70;92.70;;;;;;5048853;28;20047;-52
2021/04/15 10:38:28;;;;;;;4.38;2.45;;;16.50;91.40;;;;;;5048776;28;20107;-51
2021/04/15 10:41:54;;;;;;;3.67;2.25;;;16.30;90.50;;;;;;5049528;28;20514;-48
2021/04/15 10:45:10;;;;;;;5.65;2.72;;;15.70;90.90;;;;;;5048931;28;20047;-48
2021/04/15 10:48:35;;;;;;;5.78;2.47;;;15.10;91.00;;;;;;5055155;28;20044;-49
2021/04/15 10:52:14;;;;;;;6.13;2.70;;;14.70;92.30;;;;;;5065697;28;20043;-49
2021/04/15 10:55:21;;;;;;;5.63;2.40;;;14.20;91.50;;;;;;5030414;28;20051;-49
2021/04/15 10:58:42;;;;;;;5.53;2.80;;;13.70;92.00;;;;;;5048597;28;20039;-48
2021/04/15 11:02:10;;;;;;;4.60;2.65;;;13.60;92.60;;;;;;5063830;28;20048;-50
2021/04/15 11:05:43;;;;;;;5.53;2.40;;;13.50;92.50;;;;;;5066262;28;20505;-51
2021/04/15 11:08:47;;;;;;;12.90;3.85;;;12.50;92.10;;;;;;5055538;28;20031;-49
2021/04/15 11:11:58;;;;;;;15.35;9.70;;;12.40;92.90;;;;;;5057280;28;20064;-49
2021/04/15 11:15:22;;;;;;;3.67;1.90;;;12.70;93.00;;;;;;5065720;28;20067;-48
2021/04/15 11:18:31;;;;;;;3.00;1.77;;;12.60;92.60;;;;;;5061822;28;20115;-48
2021/04/15 11:21:38;;;;;;;4.55;2.25;;;11.70;93.40;;;;;;5049510;28;20051;-49
2021/04/15 11:24:43;;;;;;;6.97;1.63;;;11.30;94.00;;;;;;5058790;28;20039;-54
2021/04/15 11:27:48;;;;;;;10.63;5.35;;;11.60;94.70;;;;;;5071768;28;20510;-49
2021/04/15 11:30:59;;;;;;;11.35;5.63;;;12.20;94.90;;;;;;5066467;28;20048;-57
2021/04/15 11:34:11;;;;;;;5.72;2.70;;;13.10;93.50;;;;;;5070927;28;20063;-51
2021/04/15 11:37:22;;;;;;;3.70;2.38;;;13.50;92.20;;;;;;5072477;28;20047;-50
2021/04/15 11:40:48;;;;;;;4.32;2.95;;;15.30;92.40;;;;;;5066029;28;20046;-50
2021/04/15 11:44:06;;;;;;;7.35;2.92;;;16.70;89.90;;;;;;5076172;28;20047;-50
2021/04/15 11:47:22;;;;;;;8.93;3.63;;;17.70;88.80;;;;;;5075320;28;20039;-51
2021/04/15 11:50:26;;;;;;;5.18;2.90;;;18.30;86.00;;;;;;5069923;28;20317;-48
2021/04/15 11:53:55;;;;;;;5.65;2.60;;;17.00;86.20;;;;;;5071305;28;20039;-49
2021/04/15 11:57:32;;;;;;;4.15;2.92;;;16.80;88.20;;;;;;5074206;28;20063;-52
2021/04/15 12:00:39;;;;;;;9.25;6.38;;;15.10;85.50;;;;;;5078317;28;20051;-48
2021/04/15 12:04:05;;;;;;;4.97;2.90;;;14.90;87.50;;;;;;5076757;28;20047;-53
2021/04/15 12:07:26;;;;;;;5.95;3.03;;;14.60;88.60;;;;;;5073454;28;20047;-52
2021/04/15 12:10:44;;;;;;;5.18;2.90;;;15.00;91.50;;;;;;5064638;28;20052;-50
2021/04/15 12:14:02;;;;;;;5.20;3.25;;;15.40;90.80;;;;;;5078748;28;20394;-49
2021/04/15 12:17:11;;;;;;;11.52;5.00;;;15.80;91.70;;;;;;5070821;28;20051;-54
2021/04/15 12:20:51;;;;;;;8.23;3.80;;;16.10;89.00;;;;;;5054908;28;20040;-51
2021/04/15 12:24:24;;;;;;;7.40;3.42;;;15.90;86.60;;;;;;5069241;28;20510;-54
2021/04/15 12:27:33;;;;;;;6.30;2.92;;;15.70;90.40;;;;;;5069304;28;20051;-49
2021/04/15 12:30:38;;;;;;;7.13;3.60;;;15.40;90.90;;;;;;5061981;28;20048;-48
2021/04/15 12:34:07;;;;;;;7.00;3.53;;;15.00;89.80;;;;;;5074404;28;20051;-48
2021/04/15 12:37:29;;;;;;;6.30;3.83;;;14.80;91.30;;;;;;5069998;28;20402;-49
2021/04/15 12:40:42;;;;;;;5.50;4.05;;;14.70;93.00;;;;;;5074516;28;20051;-50
2021/04/15 12:44:23;;;;;;;7.90;4.15;;;14.50;92.70;;;;;;5072467;28;20043;-48
2021/04/15 12:47:32;;;;;;;3.80;3.20;;;14.30;92.80;;;;;;5068453;28;20055;-48
2021/04/15 12:50:49;;;;;;;8.20;3.58;;;14.20;93.40;;;;;;5054467;28;20052;-49
2021/04/15 12:53:57;;;;;;;7.22;3.60;;;13.90;93.50;;;;;;5055300;28;20035;-51
2021/04/15 12:57:08;;;;;;;5.57;3.70;;;14.10;93.40;;;;;;5057103;28;20415;-49
2021/04/15 13:00:20;;;;;;;6.55;3.75;;;14.00;93.60;;;;;;5061207;28;20410;-48
2021/04/15 13:03:27;;;;;;;9.43;3.22;;;14.10;93.80;;;;;;5057454;28;20071;-52
2021/04/15 13:07:00;;;;;;;5.90;2.95;;;14.10;94.00;;;;;;5057562;28;20202;-48
2021/04/15 13:10:13;;;;;;;3.88;3.05;;;14.10;94.50;;;;;;5064066;28;20047;-52
2021/04/15 13:13:36;;;;;;;5.70;2.70;;;14.00;94.20;;;;;;5060099;28;20053;-55
2021/04/15 13:16:49;;;;;;;6.90;2.60;;;13.90;94.80;;;;;;5055112;28;20044;-51
2021/04/15 13:19:56;;;;;;;4.45;2.67;;;14.00;94.00;;;;;;5055572;28;20055;-52
2021/04/15 13:23:07;;;;;;;7.72;3.00;;;14.40;94.10;;;;;;5055965;28;20051;-55
2021/04/15 13:26:11;;;;;;;8.95;2.50;;;14.90;93.70;;;;;;5058373;28;20039;-54
2021/04/15 13:29:19;;;;;;;4.65;2.70;;;15.10;93.80;;;;;;5060226;28;20044;-52
2021/04/15 13:33:09;;;;;;;9.55;3.53;;;15.10;92.60;;;;;;5066887;28;20039;-51
2021/04/15 13:36:16;;;;;;;5.80;3.05;;;14.90;91.40;;;;;;5057013;28;20056;-52
2021/04/15 13:40:06;;;;;;;6.90;3.88;;;14.70;93.30;;;;;;5060152;28;20040;-53
2021/04/15 13:43:33;;;;;;;10.27;5.13;;;14.40;91.60;;;;;;5060857;28;20047;-54
2021/04/15 13:46:36;;;;;;;6.60;3.95;;;14.20;92.30;;;;;;5062940;28;20526;-52
2021/04/15 13:49:48;;;;;;;9.10;4.85;;;14.40;93.50;;;;;;5062476;28;20048;-48
2021/04/15 13:52:52;;;;;;;6.72;3.28;;;14.80;92.80;;;;;;5062215;28;20525;-48
2021/04/15 13:55:57;;;;;;;4.32;2.53;;;14.80;92.60;;;;;;5068724;28;20066;-50
2021/04/15 13:59:03;;;;;;;6.95;2.70;;;15.00;92.80;;;;;;5069513;28;20032;-54
2021/04/15 14:02:36;;;;;;;7.85;4.88;;;15.40;91.00;;;;;;5069892;28;20111;-48
2021/04/15 14:05:43;;;;;;;6.65;3.83;;;15.50;90.80;;;;;;5069311;28;20035;-52
2021/04/15 14:09:02;;;;;;;8.55;5.10;;;15.50;90.00;;;;;;5069707;28;20443;-50
2021/04/15 14:12:40;;;;;;;6.78;4.03;;;15.90;91.80;;;;;;5069637;28;20071;-52
2021/04/15 14:15:47;;;;;;;3.45;2.42;;;16.10;90.40;;;;;;5069968;28;20063;-52
2021/04/15 14:19:04;;;;;;;3.55;2.30;;;16.00;89.90;;;;;;5069469;28;20518;-54
2021/04/15 14:22:21;;;;;;;4.55;2.60;;;16.10;90.80;;;;;;5068737;28;20419;-54
2021/04/15 14:25:30;;;;;;;4.35;2.50;;;15.60;90.00;;;;;;5061924;28;20411;-50
2021/04/15 14:28:36;;;;;;;6.53;2.70;;;15.40;89.00;;;;;;5069052;28;20047;-51
2021/04/15 14:31:48;;;;;;;8.07;2.90;;;15.90;91.50;;;;;;5069166;28;20047;-52
2021/04/15 14:34:58;;;;;;;6.28;3.28;;;16.30;88.60;;;;;;5069416;28;20043;-50
2021/04/15 14:38:04;;;;;;;4.20;2.88;;;16.60;90.60;;;;;;5068809;28;20407;-51
2021/04/15 14:41:08;;;;;;;6.38;3.30;;;17.10;90.40;;;;;;5069392;28;20051;-48
2021/04/15 14:44:19;;;;;;;4.97;2.55;;;17.40;87.30;;;;;;5069290;28;20387;-48
2021/04/15 14:48:02;;;;;;;4.68;3.10;;;17.70;88.80;;;;;;5060425;28;20039;-51
2021/04/15 14:51:21;;;;;;;7.50;3.00;;;18.00;87.50;;;;;;5068818;28;20056;-53
2021/04/15 14:54:26;;;;;;;4.07;2.65;;;18.10;85.80;;;;;;5069932;28;20297;-56
2021/04/15 14:57:33;;;;;;;7.47;2.70;;;18.20;86.80;;;;;;5068656;28;20051;-53
2021/04/15 15:00:50;;;;;;;6.75;2.70;;;18.10;83.40;;;;;;5069395;28;20043;-55
2021/04/15 15:03:58;;;;;;;6.57;3.33;;;17.50;84.80;;;;;;5069587;28;20056;-48
2021/04/15 15:07:03;;;;;;;6.78;4.00;;;17.20;87.20;;;;;;5068606;28;20043;-52
2021/04/15 15:10:10;;;;;;;5.68;2.75;;;17.10;83.90;;;;;;5071656;28;20554;-49
2021/04/15 15:13:18;;;;;;;3.42;2.22;;;16.60;84.60;;;;;;5074083;28;20039;-51
2021/04/15 15:16:28;;;;;;;4.82;2.38;;;16.40;86.80;;;;;;5073544;28;20040;-52
2021/04/15 15:19:34;;;;;;;4.32;2.80;;;16.60;84.40;;;;;;5072830;28;20518;-48
2021/04/15 15:22:41;;;;;;;7.50;2.90;;;16.40;84.40;;;;;;5073635;28;20407;-48
2021/04/15 15:25:49;;;;;;;4.10;2.63;;;16.20;84.50;;;;;;5073476;28;20505;-51
2021/04/15 15:28:59;;;;;;;7.05;2.85;;;15.90;89.50;;;;;;5072751;28;20048;-52
2021/04/15 15:32:24;;;;;;;6.00;2.63;;;16.00;87.50;;;;;;5073337;28;20047;-50
2021/04/15 15:35:34;;;;;;;3.97;2.13;;;15.90;90.00;;;;;;5072540;28;20043;-50
2021/04/15 15:38:50;;;;;;;4.15;2.65;;;16.00;90.10;;;;;;5072614;28;20060;-52
2021/04/15 15:41:56;;;;;;;4.20;2.67;;;16.00;90.00;;;;;;5072627;28;20047;-48
2021/04/15 15:45:22;;;;;;;3.47;2.40;;;16.00;89.20;;;;;;5072917;28;20059;-48
2021/04/15 15:48:41;;;;;;;7.38;2.92;;;16.00;89.80;;;;;;5072053;28;20115;-50
2021/04/15 15:51:51;;;;;;;5.18;2.50;;;16.00;90.50;;;;;;5072380;28;20063;-50
2021/04/15 15:54:55;;;;;;;5.25;2.67;;;16.00;90.20;;;;;;5072643;28;20044;-49
2021/04/15 15:58:03;;;;;;;5.30;2.45;;;15.80;90.50;;;;;;5071833;28;20059;-49
2021/04/15 16:01:11;;;;;;;5.65;2.40;;;15.40;90.40;;;;;;5072420;28;20055;-52
2021/04/15 16:04:15;;;;;;;3.60;2.40;;;14.10;90.50;;;;;;5072550;28;20059;-47
2021/04/15 16:07:25;;;;;;;7.50;2.90;;;14.20;91.00;;;;;;5071382;28;20048;-49
2021/04/15 16:10:32;;;;;;;5.28;2.65;;;14.00;91.20;;;;;;5072250;28;20439;-48
2021/04/15 16:13:44;;;;;;;7.30;3.83;;;14.00;91.20;;;;;;5072268;28;20048;-48
2021/04/15 16:16:50;;;;;;;2.83;2.00;;;14.00;91.10;;;;;;5071892;28;20052;-48
2021/04/15 16:19:54;;;;;;;5.50;2.80;;;14.00;91.20;;;;;;5072111;28;20633;-52
2021/04/15 16:22:58;;;;;;;6.53;3.17;;;14.00;91.50;;;;;;5071481;28;20411;-51
2021/04/15 16:26:04;;;;;;;4.93;2.88;;;14.10;91.40;;;;;;5071865;28;20047;-52
2021/04/15 16:29:09;;;;;;;5.85;2.40;;;14.10;92.40;;;;;;5071415;28;20035;-48
2021/04/15 16:32:15;;;;;;;5.78;2.92;;;14.30;92.20;;;;;;5071994;28;20517;-53
2021/04/15 16:35:19;;;;;;;5.25;2.85;;;14.50;92.70;;;;;;5071566;28;20048;-48
2021/04/15 16:38:32;;;;;;;5.15;2.90;;;14.50;92.60;;;;;;5071283;28;20043;-50
2021/04/15 16:41:36;;;;;;;5.13;3.20;;;14.30;91.70;;;;;;5071455;28;20059;-48
2021/04/15 16:44:53;;;;;;;5.80;2.75;;;13.80;91.20;;;;;;5071658;28;20051;-48
2021/04/15 16:47:58;;;;;;;7.93;2.95;;;13.70;93.80;;;;;;5071328;28;20501;-55
2021/04/15 16:51:08;;;;;;;4.20;3.10;;;13.60;93.20;;;;;;5071893;28;20051;-47
2021/04/15 16:54:12;;;;;;;4.90;2.75;;;13.50;93.70;;;;;;5071533;28;20036;-48
2021/04/15 16:57:18;;;;;;;6.75;3.67;;;13.30;93.60;;;;;;5071564;28;20055;-50
2021/04/15 17:00:29;;;;;;;5.45;3.72;;;13.20;94.20;;;;;;5071516;28;20122;-48
2021/04/15 17:03:33;;;;;;;6.50;3.50;;;13.00;94.10;;;;;;5071766;28;20403;-48
2021/04/15 17:06:37;;;;;;;4.97;2.63;;;12.80;94.00;;;;;;5071506;28;20055;-49